sensor_id;sensor_type;location;lat;lon;timestamp;P1;durP1;ratioP1;P2;durP2;ratioP2
7919;SDS011;18778;47.610;9.776;2023-08-30T00:02:04;2.90;;;2.70;;
7919;SDS011;18778;47.610;9.776;2023-08-30T00:04:30;3.20;;;3.00;;
7919;SDS011;18778;47.610;9.776;2023-08-30T00:06:56;3.50;;;3.30;;
7919;SDS011;18778;47.610;9.776;2023-08-30T00:09:21;3.57;;;3.37;;
7919;SDS011;18778;47.610;9.776;2023-08-30T00:11:47;3.67;;;3.47;;
7919;SDS011;18778;47.610;9.776;2023-08-30T00:14:12;3.80;;;3.50;;
7919;SDS011;18778;47.610;9.776;2023-08-30T00:16:38;3.93;;;3.70;;
7919;SDS011;18778;47.610;9.776;2023-08-30T00:19:03;3.93;;;3.63;;
7919;SDS011;18778;47.610;9.776;2023-08-30T00:21:29;3.57;;;3.37;;
7919;SDS011;18778;47.610;9.776;2023-08-30T00:23:55;3.93;;;3.63;;
7919;SDS011;18778;47.610;9.776;2023-08-30T00:26:21;4.00;;;3.70;;
7919;SDS011;18778;47.610;9.776;2023-08-30T00:28:46;4.50;;;4.10;;
7919;SDS011;18778;47.610;9.776;2023-08-30T00:31:12;4.20;;;3.90;;
7919;SDS011;18778;47.610;9.776;2023-08-30T00:33:38;5.30;;;4.80;;
7919;SDS011;18778;47.610;9.776;2023-08-30T00:36:03;4.87;;;4.47;;
7919;SDS011;18778;47.610;9.776;2023-08-30T00:38:29;5.37;;;4.97;;
7919;SDS011;18778;47.610;9.776;2023-08-30T00:40:57;4.60;;;4.20;;
7919;SDS011;18778;47.610;9.776;2023-08-30T00:43:23;4.80;;;4.40;;
7919;SDS011;18778;47.610;9.776;2023-08-30T00:45:49;5.13;;;4.73;;
7919;SDS011;18778;47.610;9.776;2023-08-30T00:48:15;5.30;;;4.90;;
7919;SDS011;18778;47.610;9.776;2023-08-30T00:50:43;5.27;;;4.87;;
7919;SDS011;18778;47.610;9.776;2023-08-30T00:53:09;6.00;;;5.50;;
7919;SDS011;18778;47.610;9.776;2023-08-30T00:55:36;5.47;;;5.00;;
7919;SDS011;18778;47.610;9.776;2023-08-30T00:58:03;4.70;;;4.30;;
7919;SDS011;18778;47.610;9.776;2023-08-30T01:00:31;4.87;;;4.47;;
7919;SDS011;18778;47.610;9.776;2023-08-30T01:02:58;4.87;;;4.57;;
7919;SDS011;18778;47.610;9.776;2023-08-30T01:05:24;4.93;;;4.50;;
7919;SDS011;18778;47.610;9.776;2023-08-30T01:07:52;5.63;;;5.13;;
7919;SDS011;18778;47.610;9.776;2023-08-30T01:10:18;5.00;;;4.60;;
7919;SDS011;18778;47.610;9.776;2023-08-30T01:12:50;5.00;;;4.70;;
7919;SDS011;18778;47.610;9.776;2023-08-30T01:15:22;4.77;;;4.43;;
7919;SDS011;18778;47.610;9.776;2023-08-30T01:17:51;5.50;;;5.10;;
7919;SDS011;18778;47.610;9.776;2023-08-30T01:20:18;7.37;;;4.80;;
7919;SDS011;18778;47.610;9.776;2023-08-30T01:28:28;6.27;;;5.37;;
7919;SDS011;18778;47.610;9.776;2023-08-30T01:30:56;8.30;;;5.40;;
7919;SDS011;18778;47.610;9.776;2023-08-30T01:33:23;5.77;;;5.27;;
7919;SDS011;18778;47.610;9.776;2023-08-30T01:35:52;5.77;;;5.27;;
7919;SDS011;18778;47.610;9.776;2023-08-30T01:38:20;5.53;;;5.03;;
7919;SDS011;18778;47.610;9.776;2023-08-30T01:40:46;8.50;;;4.90;;
7919;SDS011;18778;47.610;9.776;2023-08-30T01:43:13;5.87;;;5.40;;
7919;SDS011;18778;47.610;9.776;2023-08-30T01:45:41;6.07;;;5.37;;
7919;SDS011;18778;47.610;9.776;2023-08-30T01:48:09;6.10;;;5.60;;
7919;SDS011;18778;47.610;9.776;2023-08-30T01:50:37;5.97;;;5.47;;
7919;SDS011;18778;47.610;9.776;2023-08-30T01:53:04;5.47;;;4.97;;
7919;SDS011;18778;47.610;9.776;2023-08-30T01:55:31;5.60;;;5.10;;
7919;SDS011;18778;47.610;9.776;2023-08-30T01:57:57;6.73;;;5.03;;
7919;SDS011;18778;47.610;9.776;2023-08-30T02:00:23;6.20;;;5.70;;
7919;SDS011;18778;47.610;9.776;2023-08-30T02:02:49;6.40;;;5.83;;
7919;SDS011;18778;47.610;9.776;2023-08-30T02:05:14;5.93;;;5.23;;
7919;SDS011;18778;47.610;9.776;2023-08-30T02:07:44;6.47;;;5.97;;
7919;SDS011;18778;47.610;9.776;2023-08-30T02:10:15;7.30;;;6.47;;
7919;SDS011;18778;47.610;9.776;2023-08-30T02:12:48;7.00;;;6.40;;
7919;SDS011;18778;47.610;9.776;2023-08-30T02:15:16;7.60;;;6.90;;
7919;SDS011;18778;47.610;9.776;2023-08-30T02:17:44;7.33;;;6.73;;
7919;SDS011;18778;47.610;9.776;2023-08-30T02:20:10;7.40;;;6.70;;
7919;SDS011;18778;47.610;9.776;2023-08-30T02:22:36;7.87;;;7.00;;
7919;SDS011;18778;47.610;9.776;2023-08-30T02:25:02;8.00;;;7.30;;
7919;SDS011;18778;47.610;9.776;2023-08-30T02:27:30;7.50;;;6.80;;
7919;SDS011;18778;47.610;9.776;2023-08-30T02:29:56;9.67;;;7.40;;
7919;SDS011;18778;47.610;9.776;2023-08-30T02:32:22;9.53;;;8.13;;
7919;SDS011;18778;47.610;9.776;2023-08-30T02:34:50;10.13;;;7.97;;
7919;SDS011;18778;47.610;9.776;2023-08-30T02:37:17;11.23;;;8.80;;
7919;SDS011;18778;47.610;9.776;2023-08-30T02:39:43;10.73;;;8.67;;
7919;SDS011;18778;47.610;9.776;2023-08-30T02:42:08;10.27;;;8.97;;
7919;SDS011;18778;47.610;9.776;2023-08-30T02:44:34;10.03;;;8.43;;
7919;SDS011;18778;47.610;9.776;2023-08-30T02:47:00;10.43;;;9.10;;
7919;SDS011;18778;47.610;9.776;2023-08-30T02:49:25;10.83;;;9.10;;
7919;SDS011;18778;47.610;9.776;2023-08-30T02:51:51;9.57;;;8.27;;
7919;SDS011;18778;47.610;9.776;2023-08-30T02:54:16;9.83;;;8.83;;
7919;SDS011;18778;47.610;9.776;2023-08-30T02:56:42;9.87;;;8.87;;
7919;SDS011;18778;47.610;9.776;2023-08-30T02:59:09;9.70;;;8.60;;
7919;SDS011;18778;47.610;9.776;2023-08-30T03:01:34;10.80;;;8.23;;
7919;SDS011;18778;47.610;9.776;2023-08-30T03:04:00;10.23;;;9.10;;
7919;SDS011;18778;47.610;9.776;2023-08-30T03:06:26;9.67;;;8.67;;
7919;SDS011;18778;47.610;9.776;2023-08-30T03:08:53;10.37;;;9.13;;
7919;SDS011;18778;47.610;9.776;2023-08-30T03:11:19;10.27;;;9.27;;
7919;SDS011;18778;47.610;9.776;2023-08-30T03:13:44;11.17;;;9.43;;
7919;SDS011;18778;47.610;9.776;2023-08-30T03:16:10;10.40;;;9.30;;
7919;SDS011;18778;47.610;9.776;2023-08-30T03:18:37;10.10;;;9.10;;
7919;SDS011;18778;47.610;9.776;2023-08-30T03:21:03;12.70;;;8.93;;
7919;SDS011;18778;47.610;9.776;2023-08-30T03:23:29;9.33;;;8.40;;
7919;SDS011;18778;47.610;9.776;2023-08-30T03:25:56;10.53;;;9.43;;
7919;SDS011;18778;47.610;9.776;2023-08-30T03:28:22;10.77;;;9.67;;
7919;SDS011;18778;47.610;9.776;2023-08-30T03:30:48;10.33;;;9.30;;
7919;SDS011;18778;47.610;9.776;2023-08-30T03:33:14;11.33;;;9.33;;
7919;SDS011;18778;47.610;9.776;2023-08-30T03:35:40;11.00;;;9.67;;
7919;SDS011;18778;47.610;9.776;2023-08-30T03:38:06;10.77;;;9.77;;
7919;SDS011;18778;47.610;9.776;2023-08-30T03:40:31;11.13;;;9.40;;
7919;SDS011;18778;47.610;9.776;2023-08-30T03:42:57;10.40;;;9.27;;
7919;SDS011;18778;47.610;9.776;2023-08-30T03:45:23;10.93;;;9.83;;
7919;SDS011;18778;47.610;9.776;2023-08-30T03:47:49;9.97;;;8.93;;
7919;SDS011;18778;47.610;9.776;2023-08-30T03:50:15;10.83;;;9.73;;
7919;SDS011;18778;47.610;9.776;2023-08-30T03:52:41;10.10;;;9.07;;
7919;SDS011;18778;47.610;9.776;2023-08-30T03:55:07;9.93;;;8.93;;
7919;SDS011;18778;47.610;9.776;2023-08-30T03:57:33;9.63;;;8.63;;
7919;SDS011;18778;47.610;9.776;2023-08-30T03:59:59;10.33;;;9.30;;
7919;SDS011;18778;47.610;9.776;2023-08-30T04:02:25;9.83;;;8.83;;
7919;SDS011;18778;47.610;9.776;2023-08-30T04:04:51;9.53;;;8.63;;
7919;SDS011;18778;47.610;9.776;2023-08-30T04:07:16;10.30;;;9.30;;
7919;SDS011;18778;47.610;9.776;2023-08-30T04:09:42;9.80;;;8.70;;
7919;SDS011;18778;47.610;9.776;2023-08-30T04:12:07;11.33;;;9.67;;
7919;SDS011;18778;47.610;9.776;2023-08-30T04:14:33;9.53;;;8.63;;
7919;SDS011;18778;47.610;9.776;2023-08-30T04:16:59;10.43;;;9.33;;
7919;SDS011;18778;47.610;9.776;2023-08-30T04:19:25;10.77;;;9.63;;
7919;SDS011;18778;47.610;9.776;2023-08-30T04:21:51;11.40;;;10.20;;
7919;SDS011;18778;47.610;9.776;2023-08-30T04:24:17;12.27;;;10.43;;
7919;SDS011;18778;47.610;9.776;2023-08-30T04:26:42;11.53;;;9.67;;
7919;SDS011;18778;47.610;9.776;2023-08-30T04:29:08;12.40;;;9.83;;
7919;SDS011;18778;47.610;9.776;2023-08-30T04:31:34;11.97;;;10.07;;
7919;SDS011;18778;47.610;9.776;2023-08-30T04:34:00;10.17;;;9.17;;
7919;SDS011;18778;47.610;9.776;2023-08-30T04:36:26;14.43;;;9.80;;
7919;SDS011;18778;47.610;9.776;2023-08-30T04:38:52;11.37;;;9.73;;
7919;SDS011;18778;47.610;9.776;2023-08-30T04:41:18;11.37;;;10.27;;
7919;SDS011;18778;47.610;9.776;2023-08-30T04:43:44;11.17;;;10.03;;
7919;SDS011;18778;47.610;9.776;2023-08-30T04:46:10;11.50;;;10.30;;
7919;SDS011;18778;47.610;9.776;2023-08-30T04:48:36;11.50;;;10.30;;
7919;SDS011;18778;47.610;9.776;2023-08-30T04:51:03;12.70;;;11.33;;
7919;SDS011;18778;47.610;9.776;2023-08-30T04:53:29;15.23;;;13.47;;
7919;SDS011;18778;47.610;9.776;2023-08-30T04:55:55;13.10;;;11.33;;
7919;SDS011;18778;47.610;9.776;2023-08-30T04:58:21;12.47;;;10.53;;
7919;SDS011;18778;47.610;9.776;2023-08-30T05:00:47;13.30;;;11.30;;
7919;SDS011;18778;47.610;9.776;2023-08-30T05:03:13;15.30;;;12.33;;
7919;SDS011;18778;47.610;9.776;2023-08-30T05:05:39;16.23;;;13.13;;
7919;SDS011;18778;47.610;9.776;2023-08-30T05:08:05;16.60;;;13.87;;
7919;SDS011;18778;47.610;9.776;2023-08-30T05:10:32;13.93;;;12.43;;
7919;SDS011;18778;47.610;9.776;2023-08-30T05:12:57;12.57;;;11.27;;
7919;SDS011;18778;47.610;9.776;2023-08-30T05:15:23;11.87;;;10.67;;
7919;SDS011;18778;47.610;9.776;2023-08-30T05:17:48;11.13;;;10.00;;
7919;SDS011;18778;47.610;9.776;2023-08-30T05:20:14;11.77;;;10.57;;
7919;SDS011;18778;47.610;9.776;2023-08-30T05:22:39;14.17;;;12.63;;
7919;SDS011;18778;47.610;9.776;2023-08-30T05:25:05;14.53;;;12.40;;
7919;SDS011;18778;47.610;9.776;2023-08-30T05:27:31;11.93;;;10.53;;
7919;SDS011;18778;47.610;9.776;2023-08-30T05:29:57;10.50;;;9.23;;
7919;SDS011;18778;47.610;9.776;2023-08-30T05:32:23;10.40;;;9.40;;
7919;SDS011;18778;47.610;9.776;2023-08-30T05:34:49;11.53;;;10.33;;
7919;SDS011;18778;47.610;9.776;2023-08-30T05:37:15;10.60;;;9.60;;
7919;SDS011;18778;47.610;9.776;2023-08-30T05:39:40;10.30;;;9.30;;
7919;SDS011;18778;47.610;9.776;2023-08-30T05:42:06;11.10;;;10.00;;
7919;SDS011;18778;47.610;9.776;2023-08-30T05:44:32;10.77;;;9.73;;
7919;SDS011;18778;47.610;9.776;2023-08-30T05:46:58;9.63;;;8.73;;
7919;SDS011;18778;47.610;9.776;2023-08-30T05:49:24;9.50;;;8.70;;
7919;SDS011;18778;47.610;9.776;2023-08-30T05:51:49;12.53;;;8.40;;
7919;SDS011;18778;47.610;9.776;2023-08-30T05:54:15;9.07;;;8.27;;
7919;SDS011;18778;47.610;9.776;2023-08-30T05:56:41;9.27;;;8.37;;
7919;SDS011;18778;47.610;9.776;2023-08-30T05:59:07;8.93;;;8.13;;
7919;SDS011;18778;47.610;9.776;2023-08-30T06:01:33;9.23;;;8.37;;
7919;SDS011;18778;47.610;9.776;2023-08-30T06:04:00;8.83;;;7.50;;
7919;SDS011;18778;47.610;9.776;2023-08-30T06:06:26;7.73;;;7.03;;
7919;SDS011;18778;47.610;9.776;2023-08-30T06:08:52;7.83;;;7.13;;
7919;SDS011;18778;47.610;9.776;2023-08-30T06:11:18;8.40;;;7.60;;
7919;SDS011;18778;47.610;9.776;2023-08-30T06:13:43;8.20;;;7.47;;
7919;SDS011;18778;47.610;9.776;2023-08-30T06:16:09;8.20;;;7.50;;
7919;SDS011;18778;47.610;9.776;2023-08-30T06:18:35;8.47;;;7.07;;
7919;SDS011;18778;47.610;9.776;2023-08-30T06:21:02;7.03;;;6.50;;
7919;SDS011;18778;47.610;9.776;2023-08-30T06:23:29;6.83;;;6.23;;
7919;SDS011;18778;47.610;9.776;2023-08-30T06:25:55;6.40;;;5.90;;
7919;SDS011;18778;47.610;9.776;2023-08-30T06:28:22;6.40;;;5.80;;
7919;SDS011;18778;47.610;9.776;2023-08-30T06:30:47;6.43;;;5.93;;
7919;SDS011;18778;47.610;9.776;2023-08-30T06:33:13;6.80;;;6.10;;
7919;SDS011;18778;47.610;9.776;2023-08-30T06:35:39;7.07;;;5.23;;
7919;SDS011;18778;47.610;9.776;2023-08-30T06:38:05;5.17;;;4.77;;
7919;SDS011;18778;47.610;9.776;2023-08-30T06:40:30;5.37;;;4.97;;
7919;SDS011;18778;47.610;9.776;2023-08-30T06:42:56;4.87;;;4.57;;
7919;SDS011;18778;47.610;9.776;2023-08-30T06:45:24;4.97;;;4.63;;
7919;SDS011;18778;47.610;9.776;2023-08-30T06:47:49;5.17;;;4.67;;
7919;SDS011;18778;47.610;9.776;2023-08-30T06:50:15;5.10;;;4.77;;
7919;SDS011;18778;47.610;9.776;2023-08-30T06:52:41;4.33;;;4.03;;
7919;SDS011;18778;47.610;9.776;2023-08-30T06:55:06;4.00;;;3.80;;
7919;SDS011;18778;47.610;9.776;2023-08-30T06:57:32;4.20;;;3.90;;
7919;SDS011;18778;47.610;9.776;2023-08-30T06:59:58;3.40;;;3.20;;
7919;SDS011;18778;47.610;9.776;2023-08-30T07:02:25;3.67;;;3.47;;
7919;SDS011;18778;47.610;9.776;2023-08-30T07:04:50;3.33;;;3.13;;
7919;SDS011;18778;47.610;9.776;2023-08-30T07:07:16;3.70;;;3.50;;
7919;SDS011;18778;47.610;9.776;2023-08-30T07:09:42;3.70;;;3.50;;
7919;SDS011;18778;47.610;9.776;2023-08-30T07:12:09;4.97;;;3.77;;
7919;SDS011;18778;47.610;9.776;2023-08-30T07:14:34;3.67;;;3.47;;
7919;SDS011;18778;47.610;9.776;2023-08-30T07:17:00;4.10;;;3.80;;
7919;SDS011;18778;47.610;9.776;2023-08-30T07:19:26;4.17;;;3.77;;
7919;SDS011;18778;47.610;9.776;2023-08-30T07:21:51;4.00;;;3.70;;
7919;SDS011;18778;47.610;9.776;2023-08-30T07:24:17;3.83;;;3.50;;
7919;SDS011;18778;47.610;9.776;2023-08-30T07:26:42;3.50;;;3.20;;
7919;SDS011;18778;47.610;9.776;2023-08-30T07:29:08;3.53;;;3.30;;
7919;SDS011;18778;47.610;9.776;2023-08-30T07:31:34;4.87;;;3.23;;
7919;SDS011;18778;47.610;9.776;2023-08-30T07:33:59;4.47;;;4.07;;
7919;SDS011;18778;47.610;9.776;2023-08-30T07:36:29;4.10;;;3.80;;
7919;SDS011;18778;47.610;9.776;2023-08-30T07:38:57;3.87;;;3.57;;
7919;SDS011;18778;47.610;9.776;2023-08-30T07:41:23;3.73;;;3.30;;
7919;SDS011;18778;47.610;9.776;2023-08-30T07:43:48;3.13;;;2.83;;
7919;SDS011;18778;47.610;9.776;2023-08-30T07:46:14;3.20;;;3.00;;
7919;SDS011;18778;47.610;9.776;2023-08-30T07:48:39;3.20;;;3.00;;
7919;SDS011;18778;47.610;9.776;2023-08-30T07:51:05;2.73;;;2.53;;
7919;SDS011;18778;47.610;9.776;2023-08-30T07:53:30;2.60;;;2.37;;
7919;SDS011;18778;47.610;9.776;2023-08-30T07:55:56;2.60;;;2.50;;
7919;SDS011;18778;47.610;9.776;2023-08-30T07:58:21;2.30;;;2.20;;
7919;SDS011;18778;47.610;9.776;2023-08-30T08:00:50;2.43;;;2.27;;
7919;SDS011;18778;47.610;9.776;2023-08-30T08:03:16;2.33;;;2.23;;
7919;SDS011;18778;47.610;9.776;2023-08-30T08:05:42;3.40;;;2.20;;
7919;SDS011;18778;47.610;9.776;2023-08-30T08:08:08;2.40;;;2.30;;
7919;SDS011;18778;47.610;9.776;2023-08-30T08:10:35;1.60;;;1.50;;
7919;SDS011;18778;47.610;9.776;2023-08-30T08:13:01;1.50;;;1.40;;
7919;SDS011;18778;47.610;9.776;2023-08-30T08:15:29;1.30;;;1.30;;
7919;SDS011;18778;47.610;9.776;2023-08-30T08:17:56;1.87;;;1.77;;
7919;SDS011;18778;47.610;9.776;2023-08-30T08:20:21;2.00;;;1.80;;
7919;SDS011;18778;47.610;9.776;2023-08-30T08:22:47;2.03;;;1.93;;
7919;SDS011;18778;47.610;9.776;2023-08-30T08:25:13;2.23;;;2.03;;
7919;SDS011;18778;47.610;9.776;2023-08-30T08:27:38;1.77;;;1.53;;
7919;SDS011;18778;47.610;9.776;2023-08-30T08:30:04;1.80;;;1.70;;
7919;SDS011;18778;47.610;9.776;2023-08-30T08:32:30;2.00;;;1.60;;
7919;SDS011;18778;47.610;9.776;2023-08-30T08:34:56;1.87;;;1.77;;
7919;SDS011;18778;47.610;9.776;2023-08-30T08:37:23;2.10;;;1.50;;
7919;SDS011;18778;47.610;9.776;2023-08-30T08:39:49;1.83;;;1.53;;
7919;SDS011;18778;47.610;9.776;2023-08-30T08:42:19;1.63;;;1.53;;
7919;SDS011;18778;47.610;9.776;2023-08-30T08:44:51;1.70;;;1.60;;
7919;SDS011;18778;47.610;9.776;2023-08-30T08:47:19;1.50;;;1.37;;
7919;SDS011;18778;47.610;9.776;2023-08-30T08:49:45;1.37;;;1.27;;
7919;SDS011;18778;47.610;9.776;2023-08-30T08:52:11;1.60;;;1.50;;
7919;SDS011;18778;47.610;9.776;2023-08-30T08:54:42;2.50;;;1.70;;
7919;SDS011;18778;47.610;9.776;2023-08-30T08:57:09;1.57;;;1.47;;
7919;SDS011;18778;47.610;9.776;2023-08-30T08:59:35;3.53;;;1.60;;
7919;SDS011;18778;47.610;9.776;2023-08-30T09:02:01;1.50;;;1.40;;
7919;SDS011;18778;47.610;9.776;2023-08-30T09:04:31;1.50;;;1.40;;
7919;SDS011;18778;47.610;9.776;2023-08-30T09:07:00;1.50;;;1.40;;
7919;SDS011;18778;47.610;9.776;2023-08-30T09:09:27;1.20;;;1.20;;
7919;SDS011;18778;47.610;9.776;2023-08-30T09:11:58;1.23;;;1.13;;
7919;SDS011;18778;47.610;9.776;2023-08-30T09:14:36;1.70;;;1.60;;
7919;SDS011;18778;47.610;9.776;2023-08-30T09:17:11;1.70;;;1.60;;
7919;SDS011;18778;47.610;9.776;2023-08-30T09:19:37;2.33;;;1.87;;
7919;SDS011;18778;47.610;9.776;2023-08-30T09:22:03;2.30;;;2.10;;
7919;SDS011;18778;47.610;9.776;2023-08-30T09:24:38;2.10;;;1.60;;
7919;SDS011;18778;47.610;9.776;2023-08-30T09:27:05;2.17;;;1.27;;
7919;SDS011;18778;47.610;9.776;2023-08-30T09:29:31;1.27;;;1.10;;
7919;SDS011;18778;47.610;9.776;2023-08-30T09:31:57;1.57;;;1.33;;
7919;SDS011;18778;47.610;9.776;2023-08-30T09:34:26;2.50;;;1.07;;
7919;SDS011;18778;47.610;9.776;2023-08-30T09:36:52;1.37;;;1.27;;
7919;SDS011;18778;47.610;9.776;2023-08-30T09:39:25;1.03;;;1.03;;
7919;SDS011;18778;47.610;9.776;2023-08-30T09:41:51;1.20;;;1.10;;
7919;SDS011;18778;47.610;9.776;2023-08-30T09:44:18;1.40;;;1.30;;
7919;SDS011;18778;47.610;9.776;2023-08-30T09:46:50;1.90;;;1.37;;
7919;SDS011;18778;47.610;9.776;2023-08-30T09:49:24;2.07;;;1.67;;
7919;SDS011;18778;47.610;9.776;2023-08-30T09:51:51;1.40;;;1.30;;
7919;SDS011;18778;47.610;9.776;2023-08-30T09:54:20;1.47;;;1.30;;
7919;SDS011;18778;47.610;9.776;2023-08-30T09:56:47;1.30;;;1.20;;
7919;SDS011;18778;47.610;9.776;2023-08-30T09:59:14;1.50;;;1.40;;
7919;SDS011;18778;47.610;9.776;2023-08-30T10:01:43;2.07;;;1.30;;
7919;SDS011;18778;47.610;9.776;2023-08-30T10:04:10;1.20;;;1.20;;
7919;SDS011;18778;47.610;9.776;2023-08-30T10:06:36;1.77;;;1.20;;
7919;SDS011;18778;47.610;9.776;2023-08-30T10:09:03;1.30;;;1.30;;
7919;SDS011;18778;47.610;9.776;2023-08-30T10:11:36;1.47;;;1.30;;
7919;SDS011;18778;47.610;9.776;2023-08-30T10:14:05;1.50;;;1.27;;
7919;SDS011;18778;47.610;9.776;2023-08-30T10:16:35;1.70;;;1.33;;
7919;SDS011;18778;47.610;9.776;2023-08-30T10:19:08;1.90;;;1.10;;
7919;SDS011;18778;47.610;9.776;2023-08-30T10:21:37;1.43;;;1.33;;
7919;SDS011;18778;47.610;9.776;2023-08-30T10:24:05;1.30;;;1.30;;
7919;SDS011;18778;47.610;9.776;2023-08-30T10:26:33;1.60;;;1.50;;
7919;SDS011;18778;47.610;9.776;2023-08-30T10:29:00;2.00;;;1.40;;
7919;SDS011;18778;47.610;9.776;2023-08-30T10:31:28;1.50;;;1.40;;
7919;SDS011;18778;47.610;9.776;2023-08-30T10:33:59;1.57;;;1.50;;
7919;SDS011;18778;47.610;9.776;2023-08-30T10:36:27;1.50;;;1.40;;
7919;SDS011;18778;47.610;9.776;2023-08-30T10:38:53;1.40;;;1.37;;
7919;SDS011;18778;47.610;9.776;2023-08-30T10:41:20;1.70;;;1.10;;
7919;SDS011;18778;47.610;9.776;2023-08-30T10:43:49;1.30;;;1.30;;
7919;SDS011;18778;47.610;9.776;2023-08-30T10:46:16;1.67;;;1.43;;
7919;SDS011;18778;47.610;9.776;2023-08-30T10:48:42;1.30;;;1.30;;
7919;SDS011;18778;47.610;9.776;2023-08-30T10:51:21;1.53;;;1.30;;
7919;SDS011;18778;47.610;9.776;2023-08-30T10:54:00;3.80;;;1.40;;
7919;SDS011;18778;47.610;9.776;2023-08-30T10:56:29;1.73;;;1.60;;
7919;SDS011;18778;47.610;9.776;2023-08-30T10:58:56;2.00;;;1.30;;
7919;SDS011;18778;47.610;9.776;2023-08-30T11:01:22;1.87;;;1.23;;
7919;SDS011;18778;47.610;9.776;2023-08-30T11:03:51;1.43;;;1.37;;
7919;SDS011;18778;47.610;9.776;2023-08-30T11:06:17;2.30;;;1.40;;
7919;SDS011;18778;47.610;9.776;2023-08-30T11:08:43;1.37;;;1.33;;
7919;SDS011;18778;47.610;9.776;2023-08-30T11:11:10;1.40;;;1.30;;
7919;SDS011;18778;47.610;9.776;2023-08-30T11:13:37;1.67;;;1.20;;
7919;SDS011;18778;47.610;9.776;2023-08-30T11:16:03;1.30;;;1.20;;
7919;SDS011;18778;47.610;9.776;2023-08-30T11:18:38;1.30;;;1.30;;
7919;SDS011;18778;47.610;9.776;2023-08-30T11:21:05;1.30;;;1.30;;
7919;SDS011;18778;47.610;9.776;2023-08-30T11:23:31;1.20;;;1.20;;
7919;SDS011;18778;47.610;9.776;2023-08-30T11:25:57;1.33;;;1.30;;
7919;SDS011;18778;47.610;9.776;2023-08-30T11:28:23;1.37;;;1.20;;
7919;SDS011;18778;47.610;9.776;2023-08-30T11:30:52;1.80;;;1.57;;
7919;SDS011;18778;47.610;9.776;2023-08-30T11:33:18;2.70;;;1.40;;
7919;SDS011;18778;47.610;9.776;2023-08-30T11:35:44;1.23;;;1.13;;
7919;SDS011;18778;47.610;9.776;2023-08-30T11:38:11;1.40;;;1.30;;
7919;SDS011;18778;47.610;9.776;2023-08-30T11:40:39;1.30;;;1.20;;
7919;SDS011;18778;47.610;9.776;2023-08-30T11:43:04;1.43;;;1.13;;
7919;SDS011;18778;47.610;9.776;2023-08-30T11:45:32;1.20;;;1.20;;
7919;SDS011;18778;47.610;9.776;2023-08-30T11:48:00;2.03;;;1.40;;
7919;SDS011;18778;47.610;9.776;2023-08-30T11:50:27;1.40;;;1.30;;
7919;SDS011;18778;47.610;9.776;2023-08-30T11:52:53;1.20;;;1.17;;
7919;SDS011;18778;47.610;9.776;2023-08-30T11:55:22;1.20;;;1.20;;
7919;SDS011;18778;47.610;9.776;2023-08-30T11:57:49;1.23;;;1.20;;
7919;SDS011;18778;47.610;9.776;2023-08-30T12:00:15;1.50;;;1.43;;
7919;SDS011;18778;47.610;9.776;2023-08-30T12:02:44;1.30;;;1.30;;
7919;SDS011;18778;47.610;9.776;2023-08-30T12:05:11;1.80;;;1.70;;
7919;SDS011;18778;47.610;9.776;2023-08-30T12:07:38;1.40;;;1.30;;
7919;SDS011;18778;47.610;9.776;2023-08-30T12:10:05;1.90;;;1.33;;
7919;SDS011;18778;47.610;9.776;2023-08-30T12:12:35;1.60;;;1.50;;
7919;SDS011;18778;47.610;9.776;2023-08-30T12:15:07;1.77;;;1.30;;
7919;SDS011;18778;47.610;9.776;2023-08-30T12:17:37;1.87;;;1.77;;
7919;SDS011;18778;47.610;9.776;2023-08-30T12:20:02;1.63;;;1.53;;
7919;SDS011;18778;47.610;9.776;2023-08-30T12:22:38;2.23;;;1.30;;
7919;SDS011;18778;47.610;9.776;2023-08-30T12:25:15;1.67;;;1.57;;
7919;SDS011;18778;47.610;9.776;2023-08-30T12:27:44;1.60;;;1.50;;
7919;SDS011;18778;47.610;9.776;2023-08-30T12:30:11;2.10;;;1.43;;
7919;SDS011;18778;47.610;9.776;2023-08-30T12:32:37;1.20;;;1.20;;
7919;SDS011;18778;47.610;9.776;2023-08-30T12:35:03;1.70;;;1.60;;
7919;SDS011;18778;47.610;9.776;2023-08-30T12:37:29;1.07;;;1.07;;
7919;SDS011;18778;47.610;9.776;2023-08-30T12:39:55;2.80;;;1.30;;
7919;SDS011;18778;47.610;9.776;2023-08-30T12:42:20;1.40;;;1.30;;
7919;SDS011;18778;47.610;9.776;2023-08-30T12:44:46;1.43;;;1.20;;
7919;SDS011;18778;47.610;9.776;2023-08-30T12:47:12;1.37;;;1.27;;
7919;SDS011;18778;47.610;9.776;2023-08-30T12:49:39;1.40;;;1.30;;
7919;SDS011;18778;47.610;9.776;2023-08-30T12:52:05;1.27;;;1.23;;
7919;SDS011;18778;47.610;9.776;2023-08-30T12:54:31;2.20;;;1.30;;
7919;SDS011;18778;47.610;9.776;2023-08-30T12:56:57;1.73;;;1.40;;
7919;SDS011;18778;47.610;9.776;2023-08-30T12:59:22;1.47;;;1.40;;
7919;SDS011;18778;47.610;9.776;2023-08-30T13:01:48;1.90;;;1.20;;
7919;SDS011;18778;47.610;9.776;2023-08-30T13:04:13;1.10;;;1.10;;
7919;SDS011;18778;47.610;9.776;2023-08-30T13:06:39;1.63;;;1.53;;
7919;SDS011;18778;47.610;9.776;2023-08-30T13:09:04;1.20;;;1.20;;
7919;SDS011;18778;47.610;9.776;2023-08-30T13:11:30;1.80;;;1.37;;
7919;SDS011;18778;47.610;9.776;2023-08-30T13:13:57;1.40;;;1.30;;
7919;SDS011;18778;47.610;9.776;2023-08-30T13:16:23;1.30;;;1.20;;
7919;SDS011;18778;47.610;9.776;2023-08-30T13:18:49;1.33;;;1.20;;
7919;SDS011;18778;47.610;9.776;2023-08-30T13:21:15;1.43;;;1.40;;
7919;SDS011;18778;47.610;9.776;2023-08-30T13:23:41;1.40;;;1.30;;
7919;SDS011;18778;47.610;9.776;2023-08-30T13:26:06;1.00;;;1.00;;
7919;SDS011;18778;47.610;9.776;2023-08-30T13:28:32;2.03;;;1.40;;
7919;SDS011;18778;47.610;9.776;2023-08-30T13:30:58;1.40;;;1.40;;
7919;SDS011;18778;47.610;9.776;2023-08-30T13:33:25;1.13;;;1.10;;
7919;SDS011;18778;47.610;9.776;2023-08-30T13:35:51;1.30;;;1.20;;
7919;SDS011;18778;47.610;9.776;2023-08-30T13:38:17;1.10;;;1.03;;
7919;SDS011;18778;47.610;9.776;2023-08-30T13:40:43;1.90;;;1.10;;
7919;SDS011;18778;47.610;9.776;2023-08-30T13:43:09;1.80;;;1.70;;
7919;SDS011;18778;47.610;9.776;2023-08-30T13:45:34;1.97;;;1.87;;
7919;SDS011;18778;47.610;9.776;2023-08-30T13:48:00;1.80;;;1.77;;
7919;SDS011;18778;47.610;9.776;2023-08-30T13:50:26;1.60;;;1.50;;
7919;SDS011;18778;47.610;9.776;2023-08-30T13:52:55;2.20;;;1.50;;
7919;SDS011;18778;47.610;9.776;2023-08-30T13:55:21;1.30;;;1.30;;
7919;SDS011;18778;47.610;9.776;2023-08-30T13:57:47;1.50;;;1.40;;
7919;SDS011;18778;47.610;9.776;2023-08-30T14:00:13;1.87;;;1.77;;
7919;SDS011;18778;47.610;9.776;2023-08-30T14:02:39;1.47;;;1.47;;
7919;SDS011;18778;47.610;9.776;2023-08-30T14:05:04;1.50;;;1.37;;
7919;SDS011;18778;47.610;9.776;2023-08-30T14:07:30;1.73;;;1.63;;
7919;SDS011;18778;47.610;9.776;2023-08-30T14:09:56;1.60;;;1.40;;
7919;SDS011;18778;47.610;9.776;2023-08-30T14:12:22;1.30;;;1.30;;
7919;SDS011;18778;47.610;9.776;2023-08-30T14:14:48;1.90;;;1.40;;
7919;SDS011;18778;47.610;9.776;2023-08-30T14:17:14;1.83;;;1.30;;
7919;SDS011;18778;47.610;9.776;2023-08-30T14:19:40;1.67;;;1.57;;
7919;SDS011;18778;47.610;9.776;2023-08-30T14:22:05;1.40;;;1.30;;
7919;SDS011;18778;47.610;9.776;2023-08-30T14:24:31;1.27;;;1.20;;
7919;SDS011;18778;47.610;9.776;2023-08-30T14:26:58;1.10;;;1.10;;
7919;SDS011;18778;47.610;9.776;2023-08-30T14:29:25;1.30;;;1.20;;
7919;SDS011;18778;47.610;9.776;2023-08-30T14:31:51;1.87;;;1.27;;
7919;SDS011;18778;47.610;9.776;2023-08-30T14:34:16;0.90;;;0.90;;
7919;SDS011;18778;47.610;9.776;2023-08-30T14:36:42;1.33;;;1.23;;
7919;SDS011;18778;47.610;9.776;2023-08-30T14:39:08;1.30;;;1.30;;
7919;SDS011;18778;47.610;9.776;2023-08-30T14:41:34;1.30;;;1.20;;
7919;SDS011;18778;47.610;9.776;2023-08-30T14:44:02;1.57;;;1.50;;
7919;SDS011;18778;47.610;9.776;2023-08-30T14:46:31;2.47;;;1.50;;
7919;SDS011;18778;47.610;9.776;2023-08-30T14:48:56;1.73;;;1.63;;
7919;SDS011;18778;47.610;9.776;2023-08-30T14:51:22;1.93;;;1.70;;
7919;SDS011;18778;47.610;9.776;2023-08-30T14:53:47;3.20;;;2.60;;
7919;SDS011;18778;47.610;9.776;2023-08-30T14:56:13;1.50;;;1.50;;
7919;SDS011;18778;47.610;9.776;2023-08-30T14:58:38;3.93;;;2.03;;
7919;SDS011;18778;47.610;9.776;2023-08-30T15:01:04;1.67;;;1.43;;